Terminal Aerodrome Forecast
Issued by NWS Cleveland, OH

Home | Current Version | Previous Version | Graphics & Text | Print | Product List | Glossary Off
Versions: 1 2 3 4 5 6 7 8 9 10 11 12 13 14 15 16

616
FTUS41 KCLE 222320
TAFERI
TAF
KERI 222320Z 2300/2324 25015G25KT P6SM VCSH BKN035
      TEMPO 2300/2301 2SM -SHRA BKN030
     FM230300 29008KT P6SM SCT040 BKN060
     FM231000 28008KT P6SM SKC
     FM231500 28012G20KT P6SM SKC
     FM231800 28012G18KT P6SM BKN040=

USA.gov is the U.S. government's official web portal to all federal, state and local government web resources and services.